sensor_id;sensor_type;location;lat;lon;timestamp;P1;durP1;ratioP1;P2;durP2;ratioP2
23490;SDS011;14683;50.038;8.078;2024-01-15T02:55:03;23.25;;;10.95;;
23490;SDS011;14683;50.038;8.078;2024-01-15T02:58:05;25.33;;;10.85;;
23490;SDS011;14683;50.038;8.078;2024-01-15T03:01:06;27.85;;;10.32;;
23490;SDS011;14683;50.038;8.078;2024-01-15T03:04:07;25.83;;;10.63;;
23490;SDS011;14683;50.038;8.078;2024-01-15T03:07:08;26.95;;;11.05;;
23490;SDS011;14683;50.038;8.078;2024-01-15T03:10:09;20.40;;;9.73;;
23490;SDS011;14683;50.038;8.078;2024-01-15T03:13:10;25.27;;;10.88;;
23490;SDS011;14683;50.038;8.078;2024-01-15T03:16:12;23.65;;;10.70;;
23490;SDS011;14683;50.038;8.078;2024-01-15T03:19:13;21.63;;;10.52;;
23490;SDS011;14683;50.038;8.078;2024-01-15T03:22:14;22.50;;;10.75;;
23490;SDS011;14683;50.038;8.078;2024-01-15T03:25:15;26.20;;;11.05;;
23490;SDS011;14683;50.038;8.078;2024-01-15T03:28:16;25.20;;;10.48;;
23490;SDS011;14683;50.038;8.078;2024-01-15T03:31:18;26.58;;;11.43;;
23490;SDS011;14683;50.038;8.078;2024-01-15T03:34:19;23.42;;;9.95;;
23490;SDS011;14683;50.038;8.078;2024-01-15T03:37:20;25.98;;;11.80;;
23490;SDS011;14683;50.038;8.078;2024-01-15T03:40:21;28.23;;;11.13;;
23490;SDS011;14683;50.038;8.078;2024-01-15T03:43:22;23.50;;;10.40;;
23490;SDS011;14683;50.038;8.078;2024-01-15T03:46:23;24.23;;;10.60;;
23490;SDS011;14683;50.038;8.078;2024-01-15T03:49:25;26.50;;;11.20;;
23490;SDS011;14683;50.038;8.078;2024-01-15T03:52:26;23.33;;;10.63;;
23490;SDS011;14683;50.038;8.078;2024-01-15T03:55:27;23.13;;;10.77;;
23490;SDS011;14683;50.038;8.078;2024-01-15T03:58:28;24.40;;;10.60;;
23490;SDS011;14683;50.038;8.078;2024-01-15T04:01:29;22.58;;;11.13;;
23490;SDS011;14683;50.038;8.078;2024-01-15T04:04:30;23.88;;;11.13;;
23490;SDS011;14683;50.038;8.078;2024-01-15T04:07:32;23.92;;;11.15;;
23490;SDS011;14683;50.038;8.078;2024-01-15T04:10:33;27.50;;;10.98;;
23490;SDS011;14683;50.038;8.078;2024-01-15T04:13:34;25.38;;;11.75;;
23490;SDS011;14683;50.038;8.078;2024-01-15T04:16:36;26.05;;;10.90;;
23490;SDS011;14683;50.038;8.078;2024-01-15T04:19:38;21.88;;;10.45;;
23490;SDS011;14683;50.038;8.078;2024-01-15T04:22:39;22.85;;;10.73;;
23490;SDS011;14683;50.038;8.078;2024-01-15T04:25:40;22.33;;;11.00;;
23490;SDS011;14683;50.038;8.078;2024-01-15T04:28:43;25.35;;;10.85;;
23490;SDS011;14683;50.038;8.078;2024-01-15T04:31:44;22.27;;;10.50;;
23490;SDS011;14683;50.038;8.078;2024-01-15T04:34:45;21.52;;;11.45;;
23490;SDS011;14683;50.038;8.078;2024-01-15T04:37:46;24.85;;;10.55;;
23490;SDS011;14683;50.038;8.078;2024-01-15T04:40:47;22.90;;;10.85;;
23490;SDS011;14683;50.038;8.078;2024-01-15T04:43:48;24.65;;;11.48;;
23490;SDS011;14683;50.038;8.078;2024-01-15T04:46:50;20.58;;;10.05;;
23490;SDS011;14683;50.038;8.078;2024-01-15T04:49:51;23.00;;;10.15;;
23490;SDS011;14683;50.038;8.078;2024-01-15T04:52:52;24.65;;;10.90;;
23490;SDS011;14683;50.038;8.078;2024-01-15T04:55:53;23.92;;;11.00;;
23490;SDS011;14683;50.038;8.078;2024-01-15T04:58:54;22.85;;;10.68;;
23490;SDS011;14683;50.038;8.078;2024-01-15T05:01:56;26.73;;;11.93;;
23490;SDS011;14683;50.038;8.078;2024-01-15T05:04:58;26.45;;;11.95;;
23490;SDS011;14683;50.038;8.078;2024-01-15T05:07:59;26.27;;;11.05;;
23490;SDS011;14683;50.038;8.078;2024-01-15T05:11:00;23.65;;;11.38;;
23490;SDS011;14683;50.038;8.078;2024-01-15T05:14:01;26.23;;;12.13;;
23490;SDS011;14683;50.038;8.078;2024-01-15T05:17:03;26.95;;;12.13;;
23490;SDS011;14683;50.038;8.078;2024-01-15T05:20:04;26.23;;;11.40;;
23490;SDS011;14683;50.038;8.078;2024-01-15T05:23:09;23.70;;;11.48;;
23490;SDS011;14683;50.038;8.078;2024-01-15T05:26:10;23.02;;;11.00;;
23490;SDS011;14683;50.038;8.078;2024-01-15T05:29:11;22.77;;;12.00;;
23490;SDS011;14683;50.038;8.078;2024-01-15T05:32:13;25.40;;;11.52;;
23490;SDS011;14683;50.038;8.078;2024-01-15T05:35:14;24.33;;;10.63;;
23490;SDS011;14683;50.038;8.078;2024-01-15T05:38:15;23.85;;;11.48;;
23490;SDS011;14683;50.038;8.078;2024-01-15T05:41:17;19.77;;;10.02;;
23490;SDS011;14683;50.038;8.078;2024-01-15T05:44:18;23.45;;;10.65;;
23490;SDS011;14683;50.038;8.078;2024-01-15T05:47:19;25.75;;;11.50;;
23490;SDS011;14683;50.038;8.078;2024-01-15T05:50:20;22.20;;;10.93;;
23490;SDS011;14683;50.038;8.078;2024-01-15T05:53:21;20.88;;;11.13;;
23490;SDS011;14683;50.038;8.078;2024-01-15T05:56:22;21.15;;;10.60;;
23490;SDS011;14683;50.038;8.078;2024-01-15T05:59:25;19.08;;;10.70;;
23490;SDS011;14683;50.038;8.078;2024-01-15T06:02:26;21.67;;;10.73;;
23490;SDS011;14683;50.038;8.078;2024-01-15T06:05:27;21.80;;;10.82;;
23490;SDS011;14683;50.038;8.078;2024-01-15T06:08:28;24.23;;;10.57;;
23490;SDS011;14683;50.038;8.078;2024-01-15T06:11:30;19.98;;;10.95;;
23490;SDS011;14683;50.038;8.078;2024-01-15T06:14:31;22.77;;;11.35;;
23490;SDS011;14683;50.038;8.078;2024-01-15T06:17:32;22.83;;;11.00;;
23490;SDS011;14683;50.038;8.078;2024-01-15T06:20:33;23.25;;;11.15;;
23490;SDS011;14683;50.038;8.078;2024-01-15T06:23:37;24.38;;;10.65;;
23490;SDS011;14683;50.038;8.078;2024-01-15T06:26:38;24.67;;;11.90;;
23490;SDS011;14683;50.038;8.078;2024-01-15T06:29:44;26.90;;;11.48;;
23490;SDS011;14683;50.038;8.078;2024-01-15T06:32:47;19.40;;;11.60;;
23490;SDS011;14683;50.038;8.078;2024-01-15T06:35:48;23.27;;;11.25;;
23490;SDS011;14683;50.038;8.078;2024-01-15T06:38:50;24.65;;;11.35;;
23490;SDS011;14683;50.038;8.078;2024-01-15T06:41:51;25.73;;;11.80;;
23490;SDS011;14683;50.038;8.078;2024-01-15T06:44:52;25.33;;;12.55;;
23490;SDS011;14683;50.038;8.078;2024-01-15T06:47:53;25.10;;;12.55;;
23490;SDS011;14683;50.038;8.078;2024-01-15T06:50:54;24.52;;;12.32;;
23490;SDS011;14683;50.038;8.078;2024-01-15T06:53:55;31.80;;;12.32;;
23490;SDS011;14683;50.038;8.078;2024-01-15T06:56:56;27.02;;;12.50;;
23490;SDS011;14683;50.038;8.078;2024-01-15T06:59:57;29.13;;;12.40;;
23490;SDS011;14683;50.038;8.078;2024-01-15T07:02:59;25.75;;;12.60;;
23490;SDS011;14683;50.038;8.078;2024-01-15T07:06:00;26.67;;;12.75;;
23490;SDS011;14683;50.038;8.078;2024-01-15T07:09:01;28.80;;;13.27;;
23490;SDS011;14683;50.038;8.078;2024-01-15T07:12:03;24.83;;;11.85;;
23490;SDS011;14683;50.038;8.078;2024-01-15T07:15:04;26.92;;;12.48;;
23490;SDS011;14683;50.038;8.078;2024-01-15T07:18:08;28.77;;;13.82;;
23490;SDS011;14683;50.038;8.078;2024-01-15T07:21:10;25.83;;;12.82;;
23490;SDS011;14683;50.038;8.078;2024-01-15T07:24:11;28.85;;;13.32;;
23490;SDS011;14683;50.038;8.078;2024-01-15T07:27:12;29.23;;;13.27;;
23490;SDS011;14683;50.038;8.078;2024-01-15T07:30:13;26.13;;;13.20;;
23490;SDS011;14683;50.038;8.078;2024-01-15T07:33:14;28.13;;;12.65;;
23490;SDS011;14683;50.038;8.078;2024-01-15T07:36:16;28.58;;;13.43;;
23490;SDS011;14683;50.038;8.078;2024-01-15T07:39:17;25.75;;;12.50;;
23490;SDS011;14683;50.038;8.078;2024-01-15T07:42:18;28.38;;;12.95;;
23490;SDS011;14683;50.038;8.078;2024-01-15T07:45:19;24.33;;;12.02;;
23490;SDS011;14683;50.038;8.078;2024-01-15T07:48:20;24.80;;;11.70;;
23490;SDS011;14683;50.038;8.078;2024-01-15T07:51:22;27.15;;;12.98;;
23490;SDS011;14683;50.038;8.078;2024-01-15T07:54:23;19.73;;;10.85;;
23490;SDS011;14683;50.038;8.078;2024-01-15T07:57:24;26.20;;;12.00;;
23490;SDS011;14683;50.038;8.078;2024-01-15T08:00:26;21.15;;;11.00;;
23490;SDS011;14683;50.038;8.078;2024-01-15T08:03:27;23.63;;;11.60;;
23490;SDS011;14683;50.038;8.078;2024-01-15T08:06:28;23.92;;;12.20;;
23490;SDS011;14683;50.038;8.078;2024-01-15T08:09:29;25.88;;;12.20;;
23490;SDS011;14683;50.038;8.078;2024-01-15T08:12:30;22.60;;;11.60;;
23490;SDS011;14683;50.038;8.078;2024-01-15T08:15:31;23.58;;;11.77;;
23490;SDS011;14683;50.038;8.078;2024-01-15T08:18:33;23.05;;;11.80;;
23490;SDS011;14683;50.038;8.078;2024-01-15T08:21:34;20.50;;;10.98;;
23490;SDS011;14683;50.038;8.078;2024-01-15T08:24:35;22.70;;;11.43;;
23490;SDS011;14683;50.038;8.078;2024-01-15T08:27:36;24.23;;;12.32;;
23490;SDS011;14683;50.038;8.078;2024-01-15T08:30:49;26.77;;;11.90;;
23490;SDS011;14683;50.038;8.078;2024-01-15T08:33:51;21.38;;;11.30;;
23490;SDS011;14683;50.038;8.078;2024-01-15T08:36:52;18.67;;;10.57;;
23490;SDS011;14683;50.038;8.078;2024-01-15T08:39:53;22.60;;;11.70;;
23490;SDS011;14683;50.038;8.078;2024-01-15T08:42:54;19.25;;;11.15;;
23490;SDS011;14683;50.038;8.078;2024-01-15T08:45:55;20.17;;;10.93;;
23490;SDS011;14683;50.038;8.078;2024-01-15T08:48:57;23.88;;;11.35;;
23490;SDS011;14683;50.038;8.078;2024-01-15T08:51:58;21.15;;;10.77;;
23490;SDS011;14683;50.038;8.078;2024-01-15T08:54:59;19.17;;;10.52;;
23490;SDS011;14683;50.038;8.078;2024-01-15T08:58:01;22.35;;;11.35;;
23490;SDS011;14683;50.038;8.078;2024-01-15T09:01:02;21.45;;;11.35;;
23490;SDS011;14683;50.038;8.078;2024-01-15T09:04:04;21.75;;;11.35;;
23490;SDS011;14683;50.038;8.078;2024-01-15T09:07:05;24.83;;;11.65;;
23490;SDS011;14683;50.038;8.078;2024-01-15T09:10:06;25.70;;;12.25;;
23490;SDS011;14683;50.038;8.078;2024-01-15T09:13:07;20.33;;;10.45;;
23490;SDS011;14683;50.038;8.078;2024-01-15T09:16:08;22.15;;;11.32;;
23490;SDS011;14683;50.038;8.078;2024-01-15T09:19:10;20.83;;;10.23;;
23490;SDS011;14683;50.038;8.078;2024-01-15T09:22:12;20.33;;;11.18;;
23490;SDS011;14683;50.038;8.078;2024-01-15T09:25:13;23.17;;;11.38;;
23490;SDS011;14683;50.038;8.078;2024-01-15T09:28:14;21.33;;;10.95;;
23490;SDS011;14683;50.038;8.078;2024-01-15T09:31:16;20.42;;;11.15;;
23490;SDS011;14683;50.038;8.078;2024-01-15T09:34:18;20.17;;;10.10;;
23490;SDS011;14683;50.038;8.078;2024-01-15T09:37:19;19.23;;;10.93;;
23490;SDS011;14683;50.038;8.078;2024-01-15T09:40:20;19.38;;;10.52;;
23490;SDS011;14683;50.038;8.078;2024-01-15T09:43:22;19.02;;;10.48;;
23490;SDS011;14683;50.038;8.078;2024-01-15T09:46:23;19.88;;;10.75;;
23490;SDS011;14683;50.038;8.078;2024-01-15T09:49:24;20.80;;;11.13;;
23490;SDS011;14683;50.038;8.078;2024-01-15T09:52:25;19.85;;;11.43;;
23490;SDS011;14683;50.038;8.078;2024-01-15T09:55:27;21.15;;;11.13;;
23490;SDS011;14683;50.038;8.078;2024-01-15T09:58:29;20.00;;;11.05;;
23490;SDS011;14683;50.038;8.078;2024-01-15T10:01:31;19.23;;;11.15;;
23490;SDS011;14683;50.038;8.078;2024-01-15T10:04:33;29.98;;;14.25;;
23490;SDS011;14683;50.038;8.078;2024-01-15T10:07:37;20.50;;;10.68;;
23490;SDS011;14683;50.038;8.078;2024-01-15T10:10:40;20.83;;;10.65;;
23490;SDS011;14683;50.038;8.078;2024-01-15T10:13:43;19.08;;;10.77;;
23490;SDS011;14683;50.038;8.078;2024-01-15T10:16:44;23.15;;;10.98;;
23490;SDS011;14683;50.038;8.078;2024-01-15T10:19:45;20.63;;;11.27;;
23490;SDS011;14683;50.038;8.078;2024-01-15T10:22:47;18.50;;;10.60;;
23490;SDS011;14683;50.038;8.078;2024-01-15T10:25:48;21.80;;;11.32;;
23490;SDS011;14683;50.038;8.078;2024-01-15T10:28:50;20.02;;;10.25;;
23490;SDS011;14683;50.038;8.078;2024-01-15T10:31:53;19.35;;;11.15;;
23490;SDS011;14683;50.038;8.078;2024-01-15T10:35:00;20.40;;;10.70;;
23490;SDS011;14683;50.038;8.078;2024-01-15T10:38:01;16.88;;;10.45;;
23490;SDS011;14683;50.038;8.078;2024-01-15T10:41:03;17.73;;;10.25;;
23490;SDS011;14683;50.038;8.078;2024-01-15T10:44:05;18.67;;;10.50;;
23490;SDS011;14683;50.038;8.078;2024-01-15T10:47:06;19.27;;;10.20;;
23490;SDS011;14683;50.038;8.078;2024-01-15T10:50:07;19.13;;;10.55;;
23490;SDS011;14683;50.038;8.078;2024-01-15T10:53:09;18.08;;;9.65;;
23490;SDS011;14683;50.038;8.078;2024-01-15T10:56:12;19.30;;;10.30;;
23490;SDS011;14683;50.038;8.078;2024-01-15T10:59:14;17.35;;;10.23;;
23490;SDS011;14683;50.038;8.078;2024-01-15T11:02:16;17.73;;;10.07;;
23490;SDS011;14683;50.038;8.078;2024-01-15T11:05:18;16.80;;;10.77;;
23490;SDS011;14683;50.038;8.078;2024-01-15T11:08:23;22.75;;;11.50;;
23490;SDS011;14683;50.038;8.078;2024-01-15T11:11:25;16.75;;;9.85;;
23490;SDS011;14683;50.038;8.078;2024-01-15T11:15:09;14.95;;;8.88;;
23490;SDS011;14683;50.038;8.078;2024-01-15T11:17:57;15.55;;;10.35;;
23490;SDS011;14683;50.038;8.078;2024-01-15T11:24:33;31.05;;;13.48;;
23490;SDS011;14683;50.038;8.078;2024-01-15T11:27:43;13.73;;;8.40;;
23490;SDS011;14683;50.038;8.078;2024-01-15T11:30:51;15.82;;;8.60;;
23490;SDS011;14683;50.038;8.078;2024-01-15T11:33:54;13.13;;;8.68;;
23490;SDS011;14683;50.038;8.078;2024-01-15T11:40:01;14.85;;;9.00;;
23490;SDS011;14683;50.038;8.078;2024-01-15T11:43:05;14.35;;;8.90;;
23490;SDS011;14683;50.038;8.078;2024-01-15T11:46:11;14.07;;;8.55;;
23490;SDS011;14683;50.038;8.078;2024-01-15T11:49:13;15.68;;;8.65;;
23490;SDS011;14683;50.038;8.078;2024-01-15T11:52:37;14.68;;;8.75;;
23490;SDS011;14683;50.038;8.078;2024-01-15T11:55:39;13.60;;;8.70;;
23490;SDS011;14683;50.038;8.078;2024-01-15T11:58:42;14.23;;;8.52;;
23490;SDS011;14683;50.038;8.078;2024-01-15T12:01:47;16.63;;;9.10;;
23490;SDS011;14683;50.038;8.078;2024-01-15T12:04:48;15.43;;;9.00;;
23490;SDS011;14683;50.038;8.078;2024-01-15T12:07:49;15.15;;;8.75;;
23490;SDS011;14683;50.038;8.078;2024-01-15T12:10:50;12.52;;;8.43;;
23490;SDS011;14683;50.038;8.078;2024-01-15T12:13:52;18.23;;;10.50;;
23490;SDS011;14683;50.038;8.078;2024-01-15T12:16:55;16.65;;;9.95;;
23490;SDS011;14683;50.038;8.078;2024-01-15T12:19:56;15.18;;;7.95;;
23490;SDS011;14683;50.038;8.078;2024-01-15T12:22:58;13.20;;;8.25;;
23490;SDS011;14683;50.038;8.078;2024-01-15T12:25:59;12.68;;;7.63;;
23490;SDS011;14683;50.038;8.078;2024-01-15T12:29:05;11.88;;;7.90;;
23490;SDS011;14683;50.038;8.078;2024-01-15T12:32:08;12.32;;;7.90;;
23490;SDS011;14683;50.038;8.078;2024-01-15T12:35:12;14.45;;;8.13;;
23490;SDS011;14683;50.038;8.078;2024-01-15T12:38:14;12.27;;;7.72;;
23490;SDS011;14683;50.038;8.078;2024-01-15T12:41:15;13.95;;;8.00;;
23490;SDS011;14683;50.038;8.078;2024-01-15T12:44:16;14.65;;;7.93;;
23490;SDS011;14683;50.038;8.078;2024-01-15T12:47:17;12.57;;;7.40;;
23490;SDS011;14683;50.038;8.078;2024-01-15T12:50:19;12.70;;;7.57;;
23490;SDS011;14683;50.038;8.078;2024-01-15T12:53:20;14.05;;;7.75;;
23490;SDS011;14683;50.038;8.078;2024-01-15T12:56:22;14.15;;;7.38;;
23490;SDS011;14683;50.038;8.078;2024-01-15T12:59:23;10.55;;;6.88;;
23490;SDS011;14683;50.038;8.078;2024-01-15T13:02:25;11.88;;;7.18;;
23490;SDS011;14683;50.038;8.078;2024-01-15T13:05:26;12.80;;;7.10;;
23490;SDS011;14683;50.038;8.078;2024-01-15T13:08:28;10.80;;;6.95;;
23490;SDS011;14683;50.038;8.078;2024-01-15T13:11:30;11.00;;;6.78;;
23490;SDS011;14683;50.038;8.078;2024-01-15T13:14:34;9.48;;;6.40;;
23490;SDS011;14683;50.038;8.078;2024-01-15T13:17:35;11.75;;;7.13;;
23490;SDS011;14683;50.038;8.078;2024-01-15T13:20:36;11.98;;;6.43;;
23490;SDS011;14683;50.038;8.078;2024-01-15T13:23:38;10.82;;;6.78;;
23490;SDS011;14683;50.038;8.078;2024-01-15T13:26:39;8.85;;;5.72;;
23490;SDS011;14683;50.038;8.078;2024-01-15T13:29:40;9.38;;;5.85;;
23490;SDS011;14683;50.038;8.078;2024-01-15T13:32:41;10.32;;;6.28;;
23490;SDS011;14683;50.038;8.078;2024-01-15T13:35:42;9.73;;;5.50;;
23490;SDS011;14683;50.038;8.078;2024-01-15T13:38:43;8.40;;;5.38;;
23490;SDS011;14683;50.038;8.078;2024-01-15T13:41:48;10.52;;;6.18;;
23490;SDS011;14683;50.038;8.078;2024-01-15T13:44:49;12.13;;;6.28;;
23490;SDS011;14683;50.038;8.078;2024-01-15T13:47:50;8.07;;;5.35;;
23490;SDS011;14683;50.038;8.078;2024-01-15T13:50:51;11.32;;;5.22;;
23490;SDS011;14683;50.038;8.078;2024-01-15T13:53:53;9.43;;;5.38;;
23490;SDS011;14683;50.038;8.078;2024-01-15T13:56:54;12.20;;;6.32;;
23490;SDS011;14683;50.038;8.078;2024-01-15T13:59:55;22.17;;;9.07;;
23490;SDS011;14683;50.038;8.078;2024-01-15T14:02:56;21.00;;;9.30;;
23490;SDS011;14683;50.038;8.078;2024-01-15T14:05:58;9.77;;;6.07;;
23490;SDS011;14683;50.038;8.078;2024-01-15T14:08:59;9.63;;;5.63;;
23490;SDS011;14683;50.038;8.078;2024-01-15T14:12:00;10.60;;;6.07;;
23490;SDS011;14683;50.038;8.078;2024-01-15T14:15:02;8.18;;;4.55;;
23490;SDS011;14683;50.038;8.078;2024-01-15T14:18:04;9.52;;;5.05;;
23490;SDS011;14683;50.038;8.078;2024-01-15T14:21:05;7.75;;;4.18;;
23490;SDS011;14683;50.038;8.078;2024-01-15T14:24:06;7.50;;;4.32;;
23490;SDS011;14683;50.038;8.078;2024-01-15T14:27:07;9.50;;;4.53;;
23490;SDS011;14683;50.038;8.078;2024-01-15T14:30:09;6.00;;;3.50;;
23490;SDS011;14683;50.038;8.078;2024-01-15T14:33:13;12.10;;;6.82;;
23490;SDS011;14683;50.038;8.078;2024-01-15T14:36:17;15.43;;;6.50;;
23490;SDS011;14683;50.038;8.078;2024-01-15T14:39:18;13.68;;;4.97;;
23490;SDS011;14683;50.038;8.078;2024-01-15T14:42:20;24.33;;;10.70;;
23490;SDS011;14683;50.038;8.078;2024-01-15T14:45:21;11.02;;;6.38;;
23490;SDS011;14683;50.038;8.078;2024-01-15T14:48:22;8.90;;;4.50;;
23490;SDS011;14683;50.038;8.078;2024-01-15T14:51:23;6.95;;;3.88;;
23490;SDS011;14683;50.038;8.078;2024-01-15T14:54:24;7.07;;;4.50;;
23490;SDS011;14683;50.038;8.078;2024-01-15T14:57:26;7.55;;;4.00;;
23490;SDS011;14683;50.038;8.078;2024-01-15T15:00:27;5.75;;;3.60;;
23490;SDS011;14683;50.038;8.078;2024-01-15T15:03:28;8.20;;;3.90;;
23490;SDS011;14683;50.038;8.078;2024-01-15T15:06:29;10.85;;;4.03;;
23490;SDS011;14683;50.038;8.078;2024-01-15T15:09:31;4.45;;;3.40;;
23490;SDS011;14683;50.038;8.078;2024-01-15T15:12:32;7.13;;;3.45;;
23490;SDS011;14683;50.038;8.078;2024-01-15T15:15:34;9.18;;;3.83;;
23490;SDS011;14683;50.038;8.078;2024-01-15T15:18:35;6.57;;;3.53;;
23490;SDS011;14683;50.038;8.078;2024-01-15T15:21:36;7.75;;;3.40;;
23490;SDS011;14683;50.038;8.078;2024-01-15T15:24:37;5.35;;;3.45;;
23490;SDS011;14683;50.038;8.078;2024-01-15T15:27:38;5.32;;;3.00;;
23490;SDS011;14683;50.038;8.078;2024-01-15T15:30:40;4.30;;;2.63;;
23490;SDS011;14683;50.038;8.078;2024-01-15T15:33:41;10.85;;;5.07;;
23490;SDS011;14683;50.038;8.078;2024-01-15T15:36:43;5.85;;;2.95;;
23490;SDS011;14683;50.038;8.078;2024-01-15T15:39:44;14.05;;;3.90;;
23490;SDS011;14683;50.038;8.078;2024-01-15T15:42:45;7.03;;;3.38;;
23490;SDS011;14683;50.038;8.078;2024-01-15T15:45:46;9.27;;;4.25;;
23490;SDS011;14683;50.038;8.078;2024-01-15T15:48:48;8.25;;;4.50;;
23490;SDS011;14683;50.038;8.078;2024-01-15T15:51:49;7.10;;;2.95;;
23490;SDS011;14683;50.038;8.078;2024-01-15T15:54:50;6.00;;;3.05;;
23490;SDS011;14683;50.038;8.078;2024-01-15T15:57:51;6.00;;;3.22;;
23490;SDS011;14683;50.038;8.078;2024-01-15T16:00:52;5.57;;;2.97;;
23490;SDS011;14683;50.038;8.078;2024-01-15T16:03:53;6.60;;;2.70;;
23490;SDS011;14683;50.038;8.078;2024-01-15T16:06:54;4.20;;;2.60;;
23490;SDS011;14683;50.038;8.078;2024-01-15T16:09:56;6.57;;;3.20;;
23490;SDS011;14683;50.038;8.078;2024-01-15T16:12:57;5.90;;;2.67;;
23490;SDS011;14683;50.038;8.078;2024-01-15T16:15:58;4.60;;;2.33;;
23490;SDS011;14683;50.038;8.078;2024-01-15T16:18:59;4.47;;;2.22;;
23490;SDS011;14683;50.038;8.078;2024-01-15T16:22:00;5.25;;;2.28;;
23490;SDS011;14683;50.038;8.078;2024-01-15T16:25:01;7.10;;;2.50;;
23490;SDS011;14683;50.038;8.078;2024-01-15T16:28:02;3.70;;;2.20;;
23490;SDS011;14683;50.038;8.078;2024-01-15T16:31:06;3.33;;;2.22;;
23490;SDS011;14683;50.038;8.078;2024-01-15T16:34:07;4.47;;;2.30;;
23490;SDS011;14683;50.038;8.078;2024-01-15T16:37:09;4.32;;;2.50;;
23490;SDS011;14683;50.038;8.078;2024-01-15T16:40:10;4.03;;;1.90;;
23490;SDS011;14683;50.038;8.078;2024-01-15T16:43:11;5.65;;;2.08;;
23490;SDS011;14683;50.038;8.078;2024-01-15T16:46:12;6.60;;;2.88;;
23490;SDS011;14683;50.038;8.078;2024-01-15T16:49:14;2.95;;;2.55;;
23490;SDS011;14683;50.038;8.078;2024-01-15T16:52:15;4.55;;;1.75;;
23490;SDS011;14683;50.038;8.078;2024-01-15T16:55:16;3.00;;;1.58;;
23490;SDS011;14683;50.038;8.078;2024-01-15T16:58:17;3.95;;;1.60;;
23490;SDS011;14683;50.038;8.078;2024-01-15T17:01:19;3.42;;;1.80;;
23490;SDS011;14683;50.038;8.078;2024-01-15T17:04:20;3.83;;;1.75;;
23490;SDS011;14683;50.038;8.078;2024-01-15T17:07:21;3.05;;;1.77;;
23490;SDS011;14683;50.038;8.078;2024-01-15T17:10:22;4.05;;;2.00;;
23490;SDS011;14683;50.038;8.078;2024-01-15T17:13:23;3.72;;;1.63;;
23490;SDS011;14683;50.038;8.078;2024-01-15T17:16:25;4.53;;;1.80;;
23490;SDS011;14683;50.038;8.078;2024-01-15T17:19:26;3.42;;;1.65;;
23490;SDS011;14683;50.038;8.078;2024-01-15T17:22:28;4.60;;;1.55;;
23490;SDS011;14683;50.038;8.078;2024-01-15T17:25:29;3.60;;;1.65;;
23490;SDS011;14683;50.038;8.078;2024-01-15T17:28:31;3.22;;;1.88;;
23490;SDS011;14683;50.038;8.078;2024-01-15T17:31:32;5.95;;;1.50;;
23490;SDS011;14683;50.038;8.078;2024-01-15T17:34:33;3.78;;;1.77;;
23490;SDS011;14683;50.038;8.078;2024-01-15T17:37:34;6.10;;;2.58;;
23490;SDS011;14683;50.038;8.078;2024-01-15T17:40:35;4.10;;;2.10;;
23490;SDS011;14683;50.038;8.078;2024-01-15T17:43:37;3.38;;;1.65;;
23490;SDS011;14683;50.038;8.078;2024-01-15T17:46:38;3.55;;;2.17;;
23490;SDS011;14683;50.038;8.078;2024-01-15T17:49:40;3.75;;;2.08;;
23490;SDS011;14683;50.038;8.078;2024-01-15T17:52:41;2.85;;;2.20;;
23490;SDS011;14683;50.038;8.078;2024-01-15T17:55:42;3.45;;;2.05;;
23490;SDS011;14683;50.038;8.078;2024-01-15T17:58:43;3.78;;;2.30;;
23490;SDS011;14683;50.038;8.078;2024-01-15T18:01:45;4.35;;;1.90;;
23490;SDS011;14683;50.038;8.078;2024-01-15T18:04:47;2.85;;;1.77;;
23490;SDS011;14683;50.038;8.078;2024-01-15T18:07:48;5.05;;;2.63;;
23490;SDS011;14683;50.038;8.078;2024-01-15T18:10:50;3.90;;;2.83;;
23490;SDS011;14683;50.038;8.078;2024-01-15T18:13:51;6.70;;;2.67;;
23490;SDS011;14683;50.038;8.078;2024-01-15T18:16:52;4.07;;;2.47;;
23490;SDS011;14683;50.038;8.078;2024-01-15T18:19:53;5.07;;;2.53;;
23490;SDS011;14683;50.038;8.078;2024-01-15T18:22:54;3.53;;;2.30;;
23490;SDS011;14683;50.038;8.078;2024-01-15T18:25:56;7.55;;;2.60;;
23490;SDS011;14683;50.038;8.078;2024-01-15T18:28:57;3.55;;;2.20;;
23490;SDS011;14683;50.038;8.078;2024-01-15T18:31:59;6.50;;;1.95;;
23490;SDS011;14683;50.038;8.078;2024-01-15T18:35:00;3.65;;;2.10;;
23490;SDS011;14683;50.038;8.078;2024-01-15T18:38:02;2.42;;;1.70;;
23490;SDS011;14683;50.038;8.078;2024-01-15T18:41:04;3.08;;;1.70;;
23490;SDS011;14683;50.038;8.078;2024-01-15T18:44:05;2.42;;;1.23;;
23490;SDS011;14683;50.038;8.078;2024-01-15T18:47:07;3.78;;;1.73;;
23490;SDS011;14683;50.038;8.078;2024-01-15T18:50:08;2.88;;;1.70;;
23490;SDS011;14683;50.038;8.078;2024-01-15T18:53:10;4.10;;;1.55;;
23490;SDS011;14683;50.038;8.078;2024-01-15T18:56:11;5.55;;;1.73;;
23490;SDS011;14683;50.038;8.078;2024-01-15T18:59:12;2.95;;;1.27;;
23490;SDS011;14683;50.038;8.078;2024-01-15T19:02:13;1.33;;;1.23;;
23490;SDS011;14683;50.038;8.078;2024-01-15T19:05:14;3.85;;;1.30;;
23490;SDS011;14683;50.038;8.078;2024-01-15T19:08:15;2.67;;;1.50;;
23490;SDS011;14683;50.038;8.078;2024-01-15T19:11:17;2.88;;;1.75;;
23490;SDS011;14683;50.038;8.078;2024-01-15T19:14:18;2.88;;;1.58;;
23490;SDS011;14683;50.038;8.078;2024-01-15T19:17:20;3.40;;;1.50;;
23490;SDS011;14683;50.038;8.078;2024-01-15T19:20:21;3.80;;;1.70;;
23490;SDS011;14683;50.038;8.078;2024-01-15T19:23:22;2.47;;;1.60;;
23490;SDS011;14683;50.038;8.078;2024-01-15T19:26:23;6.90;;;1.90;;
23490;SDS011;14683;50.038;8.078;2024-01-15T19:29:24;3.58;;;1.90;;
23490;SDS011;14683;50.038;8.078;2024-01-15T19:32:26;4.30;;;2.13;;
23490;SDS011;14683;50.038;8.078;2024-01-15T19:35:27;3.95;;;1.95;;
23490;SDS011;14683;50.038;8.078;2024-01-15T19:38:28;5.18;;;2.58;;
23490;SDS011;14683;50.038;8.078;2024-01-15T19:41:30;3.47;;;1.60;;
23490;SDS011;14683;50.038;8.078;2024-01-15T19:44:32;3.03;;;1.65;;
23490;SDS011;14683;50.038;8.078;2024-01-15T19:47:33;4.20;;;2.03;;
23490;SDS011;14683;50.038;8.078;2024-01-15T19:50:35;6.90;;;2.70;;
23490;SDS011;14683;50.038;8.078;2024-01-15T19:53:36;4.25;;;2.15;;
23490;SDS011;14683;50.038;8.078;2024-01-15T19:56:38;2.60;;;1.85;;
23490;SDS011;14683;50.038;8.078;2024-01-15T19:59:39;7.00;;;2.25;;
23490;SDS011;14683;50.038;8.078;2024-01-15T20:02:40;6.75;;;2.50;;
23490;SDS011;14683;50.038;8.078;2024-01-15T20:05:42;2.67;;;2.13;;
23490;SDS011;14683;50.038;8.078;2024-01-15T20:08:43;4.78;;;2.35;;
23490;SDS011;14683;50.038;8.078;2024-01-15T20:11:45;8.07;;;2.67;;
23490;SDS011;14683;50.038;8.078;2024-01-15T20:14:47;4.68;;;1.92;;
23490;SDS011;14683;50.038;8.078;2024-01-15T20:17:50;3.45;;;1.85;;
23490;SDS011;14683;50.038;8.078;2024-01-15T20:20:53;2.83;;;2.42;;
23490;SDS011;14683;50.038;8.078;2024-01-15T20:23:55;5.55;;;2.13;;
23490;SDS011;14683;50.038;8.078;2024-01-15T20:26:56;6.07;;;2.50;;
23490;SDS011;14683;50.038;8.078;2024-01-15T20:29:57;5.93;;;2.22;;
23490;SDS011;14683;50.038;8.078;2024-01-15T20:32:58;3.70;;;2.30;;
23490;SDS011;14683;50.038;8.078;2024-01-15T20:36:00;4.35;;;2.08;;
23490;SDS011;14683;50.038;8.078;2024-01-15T20:39:01;3.92;;;1.88;;
23490;SDS011;14683;50.038;8.078;2024-01-15T20:42:03;3.67;;;2.00;;
23490;SDS011;14683;50.038;8.078;2024-01-15T20:45:05;4.47;;;2.20;;
23490;SDS011;14683;50.038;8.078;2024-01-15T20:48:06;2.97;;;1.92;;
23490;SDS011;14683;50.038;8.078;2024-01-15T20:51:09;3.58;;;2.20;;
